sensor_id;sensor_type;location;lat;lon;timestamp;temperature;humidity
8711;DHT22;4392;47.400;8.062;2022-12-07T12:40:38;6.50;99.90
8711;DHT22;4392;47.400;8.062;2022-12-07T12:43:40;6.50;99.90
8711;DHT22;4392;47.400;8.062;2022-12-07T12:48:57;6.50;99.90
8711;DHT22;4392;47.400;8.062;2022-12-07T12:51:52;6.60;99.90
8711;DHT22;4392;47.400;8.062;2022-12-07T12:57:34;6.60;99.90
8711;DHT22;4392;47.400;8.062;2022-12-07T13:00:18;6.60;99.90
8711;DHT22;4392;47.400;8.062;2022-12-07T13:02:55;6.70;99.90
8711;DHT22;4392;47.400;8.062;2022-12-07T13:05:24;6.60;99.90
8711;DHT22;4392;47.400;8.062;2022-12-07T13:08:21;6.60;99.90
8711;DHT22;4392;47.400;8.062;2022-12-07T13:10:47;6.60;99.90
8711;DHT22;4392;47.400;8.062;2022-12-07T13:15:53;6.70;99.90
8711;DHT22;4392;47.400;8.062;2022-12-07T13:31:50;6.60;99.90
8711;DHT22;4392;47.400;8.062;2022-12-07T13:39:35;6.80;99.90
8711;DHT22;4392;47.400;8.062;2022-12-07T13:42:15;6.90;99.90
8711;DHT22;4392;47.400;8.062;2022-12-07T13:44:45;6.80;99.90
8711;DHT22;4392;47.400;8.062;2022-12-07T13:47:44;6.70;99.90
8711;DHT22;4392;47.400;8.062;2022-12-07T13:50:25;6.70;99.90
8711;DHT22;4392;47.400;8.062;2022-12-07T13:52:57;6.70;99.90
8711;DHT22;4392;47.400;8.062;2022-12-07T13:55:25;6.70;99.90
8711;DHT22;4392;47.400;8.062;2022-12-07T13:57:54;6.60;99.90
8711;DHT22;4392;47.400;8.062;2022-12-07T14:00:24;6.60;99.90
8711;DHT22;4392;47.400;8.062;2022-12-07T14:05:40;6.50;99.90
8711;DHT22;4392;47.400;8.062;2022-12-07T14:10:54;6.60;99.90
8711;DHT22;4392;47.400;8.062;2022-12-07T14:15:56;6.60;99.90
8711;DHT22;4392;47.400;8.062;2022-12-07T14:18:40;6.60;99.90
8711;DHT22;4392;47.400;8.062;2022-12-07T14:21:17;6.60;99.90
8711;DHT22;4392;47.400;8.062;2022-12-07T14:23:44;6.60;99.90
8711;DHT22;4392;47.400;8.062;2022-12-07T14:26:20;6.50;99.90
8711;DHT22;4392;47.400;8.062;2022-12-07T14:28:47;6.70;99.90
8711;DHT22;4392;47.400;8.062;2022-12-07T14:31:18;6.60;99.90
8711;DHT22;4392;47.400;8.062;2022-12-07T14:33:46;6.60;99.90
8711;DHT22;4392;47.400;8.062;2022-12-07T14:36:13;6.50;99.90
8711;DHT22;4392;47.400;8.062;2022-12-07T14:38:40;6.50;99.90
8711;DHT22;4392;47.400;8.062;2022-12-07T14:41:14;6.40;99.90
8711;DHT22;4392;47.400;8.062;2022-12-07T14:44:00;6.40;99.90
8711;DHT22;4392;47.400;8.062;2022-12-07T14:46:26;6.40;99.90
8711;DHT22;4392;47.400;8.062;2022-12-07T14:48:51;6.40;99.90
8711;DHT22;4392;47.400;8.062;2022-12-07T14:51:17;6.40;99.90
8711;DHT22;4392;47.400;8.062;2022-12-07T14:53:48;6.40;99.90
8711;DHT22;4392;47.400;8.062;2022-12-07T14:56:14;6.40;99.90
8711;DHT22;4392;47.400;8.062;2022-12-07T14:58:40;6.30;99.90
8711;DHT22;4392;47.400;8.062;2022-12-07T15:01:06;6.30;99.90
8711;DHT22;4392;47.400;8.062;2022-12-07T15:03:33;6.30;99.90
8711;DHT22;4392;47.400;8.062;2022-12-07T15:06:00;6.40;99.90
8711;DHT22;4392;47.400;8.062;2022-12-07T15:08:26;6.30;99.90
8711;DHT22;4392;47.400;8.062;2022-12-07T15:10:52;6.40;99.90
8711;DHT22;4392;47.400;8.062;2022-12-07T15:13:18;6.50;99.90
8711;DHT22;4392;47.400;8.062;2022-12-07T15:16:02;6.40;99.90
8711;DHT22;4392;47.400;8.062;2022-12-07T15:18:28;6.40;99.90
8711;DHT22;4392;47.400;8.062;2022-12-07T15:20:54;6.40;99.90
8711;DHT22;4392;47.400;8.062;2022-12-07T15:23:21;6.30;99.90
8711;DHT22;4392;47.400;8.062;2022-12-07T15:25:48;6.30;99.90
8711;DHT22;4392;47.400;8.062;2022-12-07T15:28:14;6.30;99.90
8711;DHT22;4392;47.400;8.062;2022-12-07T15:30:43;6.20;99.90
8711;DHT22;4392;47.400;8.062;2022-12-07T15:33:10;6.20;99.90
8711;DHT22;4392;47.400;8.062;2022-12-07T15:35:40;6.20;99.90
8711;DHT22;4392;47.400;8.062;2022-12-07T15:38:07;6.10;99.90
8711;DHT22;4392;47.400;8.062;2022-12-07T15:40:33;6.00;99.90
8711;DHT22;4392;47.400;8.062;2022-12-07T15:43:00;5.90;99.90
8711;DHT22;4392;47.400;8.062;2022-12-07T15:45:26;5.90;99.90
8711;DHT22;4392;47.400;8.062;2022-12-07T15:47:52;5.90;99.90
8711;DHT22;4392;47.400;8.062;2022-12-07T15:50:20;5.90;99.90
8711;DHT22;4392;47.400;8.062;2022-12-07T15:52:47;5.80;99.90
8711;DHT22;4392;47.400;8.062;2022-12-07T15:55:13;5.80;99.90
8711;DHT22;4392;47.400;8.062;2022-12-07T15:57:40;5.90;99.90
8711;DHT22;4392;47.400;8.062;2022-12-07T16:00:08;5.90;99.90
8711;DHT22;4392;47.400;8.062;2022-12-07T16:02:35;5.80;99.90
8711;DHT22;4392;47.400;8.062;2022-12-07T16:05:01;5.80;99.90
8711;DHT22;4392;47.400;8.062;2022-12-07T16:07:27;5.70;99.90
8711;DHT22;4392;47.400;8.062;2022-12-07T16:09:53;5.70;99.90
8711;DHT22;4392;47.400;8.062;2022-12-07T16:12:22;5.50;99.90
8711;DHT22;4392;47.400;8.062;2022-12-07T16:14:47;5.50;99.90
8711;DHT22;4392;47.400;8.062;2022-12-07T16:17:13;5.50;99.90
8711;DHT22;4392;47.400;8.062;2022-12-07T16:19:39;5.40;99.90
8711;DHT22;4392;47.400;8.062;2022-12-07T16:22:05;5.40;99.90
8711;DHT22;4392;47.400;8.062;2022-12-07T16:24:32;5.40;99.90
8711;DHT22;4392;47.400;8.062;2022-12-07T16:26:57;5.40;99.90
8711;DHT22;4392;47.400;8.062;2022-12-07T16:29:23;5.40;99.90
8711;DHT22;4392;47.400;8.062;2022-12-07T16:31:50;5.40;99.90
8711;DHT22;4392;47.400;8.062;2022-12-07T16:34:17;5.40;99.90
8711;DHT22;4392;47.400;8.062;2022-12-07T16:36:43;5.50;99.90
8711;DHT22;4392;47.400;8.062;2022-12-07T16:39:09;5.50;99.90
8711;DHT22;4392;47.400;8.062;2022-12-07T16:41:35;5.50;99.90
8711;DHT22;4392;47.400;8.062;2022-12-07T16:44:07;5.50;99.90
8711;DHT22;4392;47.400;8.062;2022-12-07T16:46:35;5.50;99.90
8711;DHT22;4392;47.400;8.062;2022-12-07T16:49:02;5.40;99.90
8711;DHT22;4392;47.400;8.062;2022-12-07T16:51:28;6.40;99.90
8711;DHT22;4392;47.400;8.062;2022-12-07T16:53:54;6.00;99.90
8711;DHT22;4392;47.400;8.062;2022-12-07T16:56:20;5.80;99.90
8711;DHT22;4392;47.400;8.062;2022-12-07T16:58:45;5.70;99.90
8711;DHT22;4392;47.400;8.062;2022-12-07T17:01:16;5.70;99.90
8711;DHT22;4392;47.400;8.062;2022-12-07T17:03:42;5.60;99.90
8711;DHT22;4392;47.400;8.062;2022-12-07T17:06:24;5.90;99.90
8711;DHT22;4392;47.400;8.062;2022-12-07T17:08:51;6.10;99.90
8711;DHT22;4392;47.400;8.062;2022-12-07T17:11:25;5.80;99.90
8711;DHT22;4392;47.400;8.062;2022-12-07T17:13:51;5.70;99.90
8711;DHT22;4392;47.400;8.062;2022-12-07T17:16:36;5.60;99.90
8711;DHT22;4392;47.400;8.062;2022-12-07T17:19:10;5.60;99.90
8711;DHT22;4392;47.400;8.062;2022-12-07T17:21:36;5.70;99.90
8711;DHT22;4392;47.400;8.062;2022-12-07T17:24:06;5.80;99.90
8711;DHT22;4392;47.400;8.062;2022-12-07T17:26:33;5.70;99.90
8711;DHT22;4392;47.400;8.062;2022-12-07T17:28:59;5.50;99.90
8711;DHT22;4392;47.400;8.062;2022-12-07T17:31:26;5.60;99.90
8711;DHT22;4392;47.400;8.062;2022-12-07T17:33:52;5.70;99.90
8711;DHT22;4392;47.400;8.062;2022-12-07T17:36:24;5.70;99.90
8711;DHT22;4392;47.400;8.062;2022-12-07T17:38:51;5.50;99.90
8711;DHT22;4392;47.400;8.062;2022-12-07T17:41:23;5.50;99.90
8711;DHT22;4392;47.400;8.062;2022-12-07T17:44:09;5.50;99.90
8711;DHT22;4392;47.400;8.062;2022-12-07T17:46:36;5.40;99.90
8711;DHT22;4392;47.400;8.062;2022-12-07T17:49:03;5.40;99.90
8711;DHT22;4392;47.400;8.062;2022-12-07T17:51:30;5.40;99.90
8711;DHT22;4392;47.400;8.062;2022-12-07T17:54:14;5.50;99.90
8711;DHT22;4392;47.400;8.062;2022-12-07T17:56:40;5.50;99.90
8711;DHT22;4392;47.400;8.062;2022-12-07T17:59:08;5.50;99.90
8711;DHT22;4392;47.400;8.062;2022-12-07T18:01:34;5.30;99.90
8711;DHT22;4392;47.400;8.062;2022-12-07T18:04:03;5.30;99.90
8711;DHT22;4392;47.400;8.062;2022-12-07T18:06:29;5.20;99.90
8711;DHT22;4392;47.400;8.062;2022-12-07T18:08:55;5.20;99.90
8711;DHT22;4392;47.400;8.062;2022-12-07T18:11:21;5.20;99.90
8711;DHT22;4392;47.400;8.062;2022-12-07T18:13:47;5.30;99.90
8711;DHT22;4392;47.400;8.062;2022-12-07T18:16:17;6.80;99.90
8711;DHT22;4392;47.400;8.062;2022-12-07T18:18:45;6.20;99.90
8711;DHT22;4392;47.400;8.062;2022-12-07T18:21:14;5.70;99.90
8711;DHT22;4392;47.400;8.062;2022-12-07T18:23:48;5.40;99.90
8711;DHT22;4392;47.400;8.062;2022-12-07T18:26:16;5.30;99.90
8711;DHT22;4392;47.400;8.062;2022-12-07T18:28:43;5.30;99.90
8711;DHT22;4392;47.400;8.062;2022-12-07T18:31:10;5.20;99.90
8711;DHT22;4392;47.400;8.062;2022-12-07T18:33:39;5.20;99.90
8711;DHT22;4392;47.400;8.062;2022-12-07T18:36:05;5.10;99.90
8711;DHT22;4392;47.400;8.062;2022-12-07T18:38:32;5.10;99.90
8711;DHT22;4392;47.400;8.062;2022-12-07T18:40:58;5.00;99.90
8711;DHT22;4392;47.400;8.062;2022-12-07T18:43:24;5.00;99.90
8711;DHT22;4392;47.400;8.062;2022-12-07T18:45:51;5.00;99.90
8711;DHT22;4392;47.400;8.062;2022-12-07T18:48:18;5.00;99.90
8711;DHT22;4392;47.400;8.062;2022-12-07T18:50:46;5.00;99.90
8711;DHT22;4392;47.400;8.062;2022-12-07T18:53:12;5.00;99.90
8711;DHT22;4392;47.400;8.062;2022-12-07T18:55:38;5.00;99.90
8711;DHT22;4392;47.400;8.062;2022-12-07T18:58:05;5.00;99.90
8711;DHT22;4392;47.400;8.062;2022-12-07T19:00:32;5.00;99.90
8711;DHT22;4392;47.400;8.062;2022-12-07T19:02:59;5.00;99.90
8711;DHT22;4392;47.400;8.062;2022-12-07T19:05:26;5.00;99.90
8711;DHT22;4392;47.400;8.062;2022-12-07T19:07:53;5.00;99.90
8711;DHT22;4392;47.400;8.062;2022-12-07T19:10:20;5.00;99.90
8711;DHT22;4392;47.400;8.062;2022-12-07T19:12:47;5.00;99.90
8711;DHT22;4392;47.400;8.062;2022-12-07T19:15:13;4.90;99.90
8711;DHT22;4392;47.400;8.062;2022-12-07T19:17:40;5.00;99.90
8711;DHT22;4392;47.400;8.062;2022-12-07T19:20:08;5.10;99.90
8711;DHT22;4392;47.400;8.062;2022-12-07T19:22:34;5.10;99.90
8711;DHT22;4392;47.400;8.062;2022-12-07T19:25:00;5.00;99.90
8711;DHT22;4392;47.400;8.062;2022-12-07T19:27:28;4.90;99.90
8711;DHT22;4392;47.400;8.062;2022-12-07T19:29:57;4.80;99.90
8711;DHT22;4392;47.400;8.062;2022-12-07T19:32:23;4.80;99.90
8711;DHT22;4392;47.400;8.062;2022-12-07T19:34:49;4.80;99.90
8711;DHT22;4392;47.400;8.062;2022-12-07T19:37:16;4.70;99.90
8711;DHT22;4392;47.400;8.062;2022-12-07T19:39:42;4.70;99.90
8711;DHT22;4392;47.400;8.062;2022-12-07T19:42:09;4.70;99.90
8711;DHT22;4392;47.400;8.062;2022-12-07T19:44:35;4.70;99.90
8711;DHT22;4392;47.400;8.062;2022-12-07T19:47:02;4.60;99.90
8711;DHT22;4392;47.400;8.062;2022-12-07T19:49:30;4.60;99.90
8711;DHT22;4392;47.400;8.062;2022-12-07T19:51:59;4.60;99.90
8711;DHT22;4392;47.400;8.062;2022-12-07T19:54:27;4.50;99.90
8711;DHT22;4392;47.400;8.062;2022-12-07T19:56:54;4.50;99.90
8711;DHT22;4392;47.400;8.062;2022-12-07T19:59:22;4.60;99.90
8711;DHT22;4392;47.400;8.062;2022-12-07T20:01:49;4.50;99.90
8711;DHT22;4392;47.400;8.062;2022-12-07T20:04:18;4.50;99.90
8711;DHT22;4392;47.400;8.062;2022-12-07T20:06:46;4.50;99.90
8711;DHT22;4392;47.400;8.062;2022-12-07T20:09:12;4.50;99.90
8711;DHT22;4392;47.400;8.062;2022-12-07T20:11:38;4.50;99.90
8711;DHT22;4392;47.400;8.062;2022-12-07T20:14:25;4.50;99.90
8711;DHT22;4392;47.400;8.062;2022-12-07T20:16:51;4.50;99.90
8711;DHT22;4392;47.400;8.062;2022-12-07T20:19:21;4.50;99.90
8711;DHT22;4392;47.400;8.062;2022-12-07T20:21:46;4.40;99.90
8711;DHT22;4392;47.400;8.062;2022-12-07T20:24:15;4.40;99.90
8711;DHT22;4392;47.400;8.062;2022-12-07T20:26:42;4.40;99.90
8711;DHT22;4392;47.400;8.062;2022-12-07T20:29:10;4.40;99.90
8711;DHT22;4392;47.400;8.062;2022-12-07T20:31:36;4.40;99.90
8711;DHT22;4392;47.400;8.062;2022-12-07T20:34:03;4.40;99.90
8711;DHT22;4392;47.400;8.062;2022-12-07T20:36:29;4.30;99.90
8711;DHT22;4392;47.400;8.062;2022-12-07T20:39:13;4.30;99.90
8711;DHT22;4392;47.400;8.062;2022-12-07T20:41:40;4.30;99.90
8711;DHT22;4392;47.400;8.062;2022-12-07T20:44:24;4.30;99.90
8711;DHT22;4392;47.400;8.062;2022-12-07T20:46:50;4.30;99.90
8711;DHT22;4392;47.400;8.062;2022-12-07T20:49:15;4.30;99.90
8711;DHT22;4392;47.400;8.062;2022-12-07T20:51:56;4.20;99.90
8711;DHT22;4392;47.400;8.062;2022-12-07T20:54:22;4.20;99.90
8711;DHT22;4392;47.400;8.062;2022-12-07T20:56:47;4.30;99.90
8711;DHT22;4392;47.400;8.062;2022-12-07T20:59:16;4.30;99.90
8711;DHT22;4392;47.400;8.062;2022-12-07T21:01:42;4.30;99.90
8711;DHT22;4392;47.400;8.062;2022-12-07T21:04:10;4.20;99.90
8711;DHT22;4392;47.400;8.062;2022-12-07T21:06:36;4.30;99.90
8711;DHT22;4392;47.400;8.062;2022-12-07T21:09:02;4.30;99.90
8711;DHT22;4392;47.400;8.062;2022-12-07T21:11:29;4.30;99.90
8711;DHT22;4392;47.400;8.062;2022-12-07T21:13:55;4.30;99.90
8711;DHT22;4392;47.400;8.062;2022-12-07T21:16:24;4.30;99.90
8711;DHT22;4392;47.400;8.062;2022-12-07T21:18:50;4.30;99.90
8711;DHT22;4392;47.400;8.062;2022-12-07T21:21:17;4.30;99.90
8711;DHT22;4392;47.400;8.062;2022-12-07T21:23:45;4.30;99.90
8711;DHT22;4392;47.400;8.062;2022-12-07T21:26:17;4.30;99.90
8711;DHT22;4392;47.400;8.062;2022-12-07T21:28:44;4.40;99.90
8711;DHT22;4392;47.400;8.062;2022-12-07T21:31:10;4.40;99.90
8711;DHT22;4392;47.400;8.062;2022-12-07T21:33:36;4.40;99.90
8711;DHT22;4392;47.400;8.062;2022-12-07T21:36:03;4.40;99.90
8711;DHT22;4392;47.400;8.062;2022-12-07T21:38:29;4.40;99.90
8711;DHT22;4392;47.400;8.062;2022-12-07T21:40:55;4.40;99.90
8711;DHT22;4392;47.400;8.062;2022-12-07T21:43:21;4.40;99.90
8711;DHT22;4392;47.400;8.062;2022-12-07T21:45:51;4.40;99.90
8711;DHT22;4392;47.400;8.062;2022-12-07T21:48:18;4.40;99.90
8711;DHT22;4392;47.400;8.062;2022-12-07T21:50:44;4.40;99.90
8711;DHT22;4392;47.400;8.062;2022-12-07T21:53:19;4.40;99.90
8711;DHT22;4392;47.400;8.062;2022-12-07T21:55:48;4.30;99.90
8711;DHT22;4392;47.400;8.062;2022-12-07T21:58:13;4.40;99.90
8711;DHT22;4392;47.400;8.062;2022-12-07T22:00:39;4.40;99.90
8711;DHT22;4392;47.400;8.062;2022-12-07T22:03:05;4.30;99.90
8711;DHT22;4392;47.400;8.062;2022-12-07T22:05:31;4.30;99.90
8711;DHT22;4392;47.400;8.062;2022-12-07T22:07:56;4.30;99.90
8711;DHT22;4392;47.400;8.062;2022-12-07T22:10:22;4.30;99.90
8711;DHT22;4392;47.400;8.062;2022-12-07T22:12:58;4.30;99.90
8711;DHT22;4392;47.400;8.062;2022-12-07T22:15:26;4.30;99.90
8711;DHT22;4392;47.400;8.062;2022-12-07T22:17:52;4.30;99.90
8711;DHT22;4392;47.400;8.062;2022-12-07T22:20:20;4.30;99.90
8711;DHT22;4392;47.400;8.062;2022-12-07T22:22:46;4.30;99.90
8711;DHT22;4392;47.400;8.062;2022-12-07T22:25:13;4.30;99.90
8711;DHT22;4392;47.400;8.062;2022-12-07T22:27:40;4.30;99.90
8711;DHT22;4392;47.400;8.062;2022-12-07T22:30:08;4.30;99.90
8711;DHT22;4392;47.400;8.062;2022-12-07T22:32:34;4.40;99.90
8711;DHT22;4392;47.400;8.062;2022-12-07T22:35:00;4.30;99.90
8711;DHT22;4392;47.400;8.062;2022-12-07T22:37:27;4.30;99.90
8711;DHT22;4392;47.400;8.062;2022-12-07T22:39:53;4.30;99.90
8711;DHT22;4392;47.400;8.062;2022-12-07T22:42:19;4.30;99.90
8711;DHT22;4392;47.400;8.062;2022-12-07T22:44:45;4.30;99.90
8711;DHT22;4392;47.400;8.062;2022-12-07T22:47:15;4.30;99.90
8711;DHT22;4392;47.400;8.062;2022-12-07T22:49:41;4.30;99.90
8711;DHT22;4392;47.400;8.062;2022-12-07T22:52:07;4.30;99.90
8711;DHT22;4392;47.400;8.062;2022-12-07T22:54:33;4.30;99.90
8711;DHT22;4392;47.400;8.062;2022-12-07T22:56:58;4.30;99.90
8711;DHT22;4392;47.400;8.062;2022-12-07T22:59:24;4.30;99.90
8711;DHT22;4392;47.400;8.062;2022-12-07T23:01:50;4.20;99.90
8711;DHT22;4392;47.400;8.062;2022-12-07T23:04:16;4.30;99.90
8711;DHT22;4392;47.400;8.062;2022-12-07T23:06:42;4.30;99.90
8711;DHT22;4392;47.400;8.062;2022-12-07T23:09:11;4.30;99.90
8711;DHT22;4392;47.400;8.062;2022-12-07T23:11:39;4.30;99.90
8711;DHT22;4392;47.400;8.062;2022-12-07T23:14:35;4.30;99.90
8711;DHT22;4392;47.400;8.062;2022-12-07T23:17:01;4.30;99.90
8711;DHT22;4392;47.400;8.062;2022-12-07T23:19:28;4.30;99.90
8711;DHT22;4392;47.400;8.062;2022-12-07T23:21:56;4.30;99.90
8711;DHT22;4392;47.400;8.062;2022-12-07T23:24:22;4.40;99.90
8711;DHT22;4392;47.400;8.062;2022-12-07T23:26:47;4.30;99.90
8711;DHT22;4392;47.400;8.062;2022-12-07T23:29:14;4.40;99.90
8711;DHT22;4392;47.400;8.062;2022-12-07T23:31:40;4.40;99.90
8711;DHT22;4392;47.400;8.062;2022-12-07T23:34:06;4.30;99.90
8711;DHT22;4392;47.400;8.062;2022-12-07T23:36:32;4.30;99.90
8711;DHT22;4392;47.400;8.062;2022-12-07T23:38:58;4.40;99.90
8711;DHT22;4392;47.400;8.062;2022-12-07T23:41:28;4.40;99.90
8711;DHT22;4392;47.400;8.062;2022-12-07T23:43:56;4.40;99.90
8711;DHT22;4392;47.400;8.062;2022-12-07T23:46:24;4.30;99.90
8711;DHT22;4392;47.400;8.062;2022-12-07T23:48:54;4.30;99.90
8711;DHT22;4392;47.400;8.062;2022-12-07T23:51:20;4.30;99.90
8711;DHT22;4392;47.400;8.062;2022-12-07T23:53:48;4.30;99.90
8711;DHT22;4392;47.400;8.062;2022-12-07T23:56:19;4.30;99.90
8711;DHT22;4392;47.400;8.062;2022-12-07T23:58:47;4.30;99.90
